Time;durP1;ratioP1;P1;durP2;ratioP2;P2;SDS_P1;SDS_P2;PMS_P1;PMS_P2;Temp;Humidity;BMP_temperature;BMP_pressure;BME280_temperature;BME280_humidity;BME280_pressure;Samples;Min_cycle;Max_cycle;Signal;HPM_P1;HPM_P2
2022/09/24 00:01:11;;;;;;;34.97;32.35;;;17.60;73.80;;;;;;5013808;28;20285;-77
2022/09/24 00:03:38;;;;;;;36.60;34.15;;;17.50;74.20;;;;;;5031700;28;20029;-77
2022/09/24 00:06:05;;;;;;;36.67;34.20;;;17.50;74.50;;;;;;5013888;28;20517;-77
2022/09/24 00:08:31;;;;;;;38.13;35.40;;;17.50;74.50;;;;;;5031205;28;20029;-78
2022/09/24 00:11:00;;;;;;;34.35;32.13;;;17.30;74.70;;;;;;5013903;28;20037;-77
2022/09/24 00:13:26;;;;;;;36.70;34.30;;;17.30;74.70;;;;;;5030438;28;20022;-77
2022/09/24 00:15:52;;;;;;;32.95;30.83;;;17.30;74.90;;;;;;5031100;28;20026;-77
2022/09/24 00:18:20;;;;;;;33.85;31.67;;;17.30;74.80;;;;;;4997830;28;20033;-77
2022/09/24 00:20:46;;;;;;;32.70;30.52;;;17.20;74.90;;;;;;5030243;28;20030;-77
2022/09/24 00:23:12;;;;;;;33.67;31.42;;;17.10;75.00;;;;;;4996978;28;20033;-77
2022/09/24 00:28:30;;;;;;;31.38;29.25;;;17.10;75.00;;;;;;5019798;28;20060;-77
2022/09/24 00:30:59;;;;;;;31.13;28.90;;;17.00;74.90;;;;;;5044957;28;20029;-77
2022/09/24 00:33:27;;;;;;;28.27;26.38;;;17.00;74.90;;;;;;5046174;28;20033;-77
2022/09/24 00:35:57;;;;;;;29.58;27.63;;;16.90;75.10;;;;;;5062697;28;20029;-77
2022/09/24 00:38:24;;;;;;;29.85;27.73;;;16.90;75.10;;;;;;5030714;28;20025;-77
2022/09/24 00:40:50;;;;;;;29.25;26.88;;;16.80;75.10;;;;;;5031168;28;20029;-77
2022/09/24 00:43:32;;;;;;;29.08;26.80;;;16.80;75.10;;;;;;5030599;28;20359;-77
2022/09/24 00:46:15;;;;;;;27.92;25.90;;;16.70;75.40;;;;;;5009561;28;20057;-77
2022/09/24 00:48:42;;;;;;;28.27;26.17;;;16.70;75.50;;;;;;5024413;28;20064;-77
2022/09/24 00:51:09;;;;;;;27.88;25.98;;;16.70;75.50;;;;;;5013414;28;20030;-77
2022/09/24 00:53:35;;;;;;;27.35;25.00;;;16.70;75.50;;;;;;5029157;28;20390;-77
2022/09/24 00:56:01;;;;;;;28.83;26.70;;;16.60;75.60;;;;;;5013205;28;20049;-77
2022/09/24 00:58:28;;;;;;;29.95;27.95;;;16.60;75.70;;;;;;5030935;28;20034;-77
2022/09/24 01:00:58;;;;;;;29.23;26.90;;;16.60;76.00;;;;;;5012640;28;20041;-77
2022/09/24 01:03:24;;;;;;;27.73;25.77;;;16.70;75.80;;;;;;5030967;28;20029;-77
2022/09/24 01:05:50;;;;;;;27.35;25.45;;;16.60;75.60;;;;;;4996711;28;20049;-77
2022/09/24 01:08:17;;;;;;;26.95;24.75;;;16.50;75.80;;;;;;5029134;28;20037;-77
2022/09/24 01:11:09;;;;;;;27.75;25.20;;;16.50;76.10;;;;;;5029486;28;20036;-77
2022/09/24 01:13:54;;;;;;;26.60;24.77;;;16.40;76.10;;;;;;4998945;28;20044;-77
2022/09/24 01:16:41;;;;;;;25.33;23.50;;;16.40;76.10;;;;;;5030400;28;20064;-77
2022/09/24 01:19:12;;;;;;;24.95;23.08;;;16.40;76.20;;;;;;5015001;28;20029;-77
2022/09/24 01:21:44;;;;;;;26.05;24.05;;;16.40;76.10;;;;;;5030493;28;20029;-77
2022/09/24 01:24:25;;;;;;;26.35;24.25;;;16.40;76.30;;;;;;5013328;28;20044;-77
2022/09/24 01:27:03;;;;;;;27.42;25.65;;;16.20;76.40;;;;;;5030499;28;20034;-77
2022/09/24 01:29:40;;;;;;;26.83;24.92;;;16.30;76.40;;;;;;5012904;28;20029;-77
2022/09/24 01:32:22;;;;;;;24.92;23.13;;;16.30;76.90;;;;;;5029989;28;20033;-77
2022/09/24 01:34:58;;;;;;;26.92;24.92;;;16.20;76.60;;;;;;5029297;28;20026;-77
2022/09/24 01:37:25;;;;;;;28.58;26.75;;;16.30;76.50;;;;;;5028921;28;20025;-77
2022/09/24 01:39:51;;;;;;;26.92;25.02;;;16.20;76.60;;;;;;5029251;28;20041;-77
2022/09/24 01:42:19;;;;;;;28.15;26.15;;;16.20;76.90;;;;;;5012823;28;20486;-77
2022/09/24 01:44:45;;;;;;;27.02;24.92;;;16.10;76.70;;;;;;5039308;28;20382;-77
2022/09/24 01:47:17;;;;;;;32.10;29.80;;;16.10;77.00;;;;;;5047464;28;20060;-77
2022/09/24 01:49:43;;;;;;;35.85;33.35;;;16.10;77.30;;;;;;5029322;28;20040;-77
2022/09/24 01:52:09;;;;;;;41.55;38.63;;;16.00;77.50;;;;;;5012471;28;20471;-77
2022/09/24 01:54:41;;;;;;;35.50;33.03;;;16.10;77.50;;;;;;5015298;28;20029;-77
2022/09/24 01:57:22;;;;;;;37.67;35.00;;;16.00;77.60;;;;;;5034415;28;20454;-77
2022/09/24 02:00:19;;;;;;;38.28;35.50;;;16.10;77.40;;;;;;5018482;28;20037;-77
2022/09/24 02:02:47;;;;;;;36.35;33.80;;;16.10;77.30;;;;;;5031992;28;20042;-77
2022/09/24 02:05:35;;;;;;;36.17;33.75;;;16.00;77.30;;;;;;5034018;28;20040;-77
2022/09/24 02:08:23;;;;;;;34.55;32.15;;;16.00;77.30;;;;;;5033072;28;20044;-77
2022/09/24 02:10:59;;;;;;;38.33;35.83;;;16.00;77.60;;;;;;5016842;28;20029;-77
2022/09/24 02:13:26;;;;;;;46.72;43.47;;;16.00;77.70;;;;;;5000771;28;20049;-77
2022/09/24 02:15:55;;;;;;;46.92;43.83;;;15.90;77.70;;;;;;5016167;28;20033;-77
2022/09/24 02:18:22;;;;;;;34.97;32.55;;;15.90;77.50;;;;;;5000631;28;20052;-77
2022/09/24 02:20:48;;;;;;;44.05;41.20;;;15.90;77.50;;;;;;5032531;28;20022;-77
2022/09/24 02:23:14;;;;;;;43.30;40.55;;;15.90;77.50;;;;;;5033942;28;20045;-77
2022/09/24 02:26:00;;;;;;;44.50;41.67;;;15.90;77.40;;;;;;5032657;28;20514;-77
2022/09/24 02:28:27;;;;;;;55.88;52.15;;;15.90;77.40;;;;;;5016636;28;20057;-77
2022/09/24 02:30:57;;;;;;;59.75;56.30;;;15.80;77.40;;;;;;5065267;28;20033;-77
2022/09/24 02:36:10;;;;;;;51.90;48.65;;;15.90;78.10;;;;;;5053363;28;20056;-77
2022/09/24 02:38:36;;;;;;;54.13;50.67;;;15.90;77.80;;;;;;5048824;28;20052;-77
2022/09/24 02:41:02;;;;;;;59.00;55.45;;;15.90;77.90;;;;;;5033214;28;20035;-77
2022/09/24 02:43:29;;;;;;;55.22;51.83;;;15.90;78.00;;;;;;5032317;28;20025;-77
2022/09/24 02:45:55;;;;;;;54.65;51.20;;;15.90;77.80;;;;;;5053072;28;20135;-77
2022/09/24 02:48:21;;;;;;;56.42;53.10;;;15.90;78.10;;;;;;5041043;28;20053;-77
2022/09/24 02:50:47;;;;;;;56.78;53.25;;;15.90;78.00;;;;;;5033471;28;20030;-77
2022/09/24 02:53:13;;;;;;;54.03;50.63;;;15.90;78.10;;;;;;5015656;28;20049;-77
2022/09/24 02:55:39;;;;;;;54.13;50.85;;;15.90;77.90;;;;;;5031995;28;20048;-77
2022/09/24 02:58:06;;;;;;;52.40;49.28;;;15.90;78.40;;;;;;5033620;28;20026;-77
2022/09/24 03:00:32;;;;;;;51.38;48.00;;;15.90;78.40;;;;;;5031686;28;20502;-77
2022/09/24 03:02:58;;;;;;;53.05;49.47;;;15.90;78.30;;;;;;5032855;28;20033;-77
2022/09/24 03:05:24;;;;;;;54.08;50.55;;;15.90;78.00;;;;;;5031357;28;20462;-77
2022/09/24 03:07:50;;;;;;;52.33;48.95;;;15.90;78.40;;;;;;5031871;28;20037;-77
2022/09/24 03:10:16;;;;;;;47.15;44.17;;;15.90;78.70;;;;;;5032041;28;20029;-77
2022/09/24 03:12:42;;;;;;;43.85;41.05;;;15.90;78.90;;;;;;5032775;28;20034;-77
2022/09/24 03:15:09;;;;;;;36.70;34.22;;;15.90;79.00;;;;;;5015052;28;20041;-77
2022/09/24 03:17:35;;;;;;;32.17;29.65;;;15.90;79.30;;;;;;5031412;28;20021;-77
2022/09/24 03:20:01;;;;;;;30.58;28.20;;;16.00;79.60;;;;;;5031734;28;20021;-77
2022/09/24 03:22:27;;;;;;;26.23;24.20;;;15.90;79.10;;;;;;5031770;28;20466;-77
2022/09/24 03:24:54;;;;;;;26.10;24.02;;;15.90;80.50;;;;;;5032808;28;20105;-77
2022/09/24 03:27:20;;;;;;;28.40;26.20;;;15.90;80.00;;;;;;5031435;28;20498;-77
2022/09/24 03:32:32;;;;;;;28.15;25.85;;;15.90;80.00;;;;;;5058664;28;20064;-77
2022/09/24 03:35:00;;;;;;;27.77;25.67;;;15.90;79.50;;;;;;5047644;28;20033;-77
2022/09/24 03:37:26;;;;;;;29.38;27.27;;;15.90;79.70;;;;;;5032376;28;20024;-77
2022/09/24 03:39:52;;;;;;;28.85;26.75;;;15.90;79.90;;;;;;5064536;28;20048;-77
2022/09/24 03:42:18;;;;;;;28.40;26.17;;;15.90;80.20;;;;;;5032161;28;20032;-77
2022/09/24 03:44:44;;;;;;;27.85;25.70;;;16.00;79.90;;;;;;5025073;28;20055;-77
2022/09/24 03:47:10;;;;;;;29.58;27.33;;;15.90;79.80;;;;;;5047771;28;20033;-77
2022/09/24 03:49:36;;;;;;;28.30;26.10;;;15.90;80.30;;;;;;5031244;28;20410;-77
2022/09/24 03:52:03;;;;;;;29.52;27.10;;;15.90;81.00;;;;;;5031143;28;20472;-77
2022/09/24 03:54:29;;;;;;;30.50;28.20;;;15.90;80.80;;;;;;5032305;28;20037;-77
2022/09/24 03:56:55;;;;;;;29.80;27.60;;;16.00;80.20;;;;;;5032351;28;20033;-77
2022/09/24 03:59:21;;;;;;;29.15;27.00;;;16.00;80.60;;;;;;5032170;28;20040;-77
2022/09/24 04:01:47;;;;;;;30.80;28.52;;;16.00;79.70;;;;;;5029944;28;20044;-77
2022/09/24 04:04:15;;;;;;;30.05;27.92;;;16.00;79.90;;;;;;5032081;28;20038;-77
2022/09/24 04:06:41;;;;;;;29.90;27.70;;;16.00;80.30;;;;;;5030635;28;20557;-77
2022/09/24 04:09:07;;;;;;;30.48;28.17;;;16.00;80.40;;;;;;5031963;28;20030;-77
2022/09/24 04:11:34;;;;;;;29.70;27.55;;;16.10;80.50;;;;;;5030665;28;20398;-77
2022/09/24 04:14:00;;;;;;;28.50;26.33;;;16.10;80.30;;;;;;5031863;28;20029;-77
2022/09/24 04:16:27;;;;;;;28.77;26.58;;;16.10;80.20;;;;;;5028825;28;20033;-77
2022/09/24 04:18:54;;;;;;;28.52;26.35;;;16.10;80.40;;;;;;5013562;28;20478;-77
2022/09/24 04:21:20;;;;;;;29.65;27.30;;;16.10;80.20;;;;;;5014565;28;20045;-77
2022/09/24 04:23:46;;;;;;;28.40;26.00;;;16.10;80.00;;;;;;5031559;28;20041;-77
2022/09/24 04:26:12;;;;;;;29.77;27.55;;;16.10;80.10;;;;;;5030504;28;20025;-77
2022/09/24 04:28:38;;;;;;;28.23;26.10;;;16.10;80.90;;;;;;5031333;28;20046;-77
2022/09/24 04:31:04;;;;;;;27.27;25.00;;;16.10;80.30;;;;;;5046011;28;20040;-77
2022/09/24 04:33:31;;;;;;;29.02;26.63;;;16.10;80.50;;;;;;5031485;28;20030;-77
2022/09/24 04:35:57;;;;;;;27.52;25.52;;;16.10;80.70;;;;;;5063504;28;20033;-77
2022/09/24 04:38:23;;;;;;;30.30;27.80;;;16.10;80.80;;;;;;5062280;28;20037;-77
2022/09/24 04:40:49;;;;;;;27.95;25.63;;;16.10;80.80;;;;;;5031213;28;20028;-77
2022/09/24 04:43:16;;;;;;;29.38;27.23;;;16.10;80.40;;;;;;5030010;28;20033;-77
2022/09/24 04:45:43;;;;;;;29.63;26.98;;;16.00;80.90;;;;;;5047670;28;20033;-77
2022/09/24 04:48:10;;;;;;;28.08;25.88;;;16.10;81.20;;;;;;5039622;28;20049;-77
2022/09/24 04:50:37;;;;;;;27.70;25.55;;;16.10;81.00;;;;;;5013800;28;20040;-77
2022/09/24 04:53:03;;;;;;;28.75;26.35;;;16.10;80.50;;;;;;5031107;28;20030;-77
2022/09/24 04:55:30;;;;;;;30.08;27.58;;;16.10;80.70;;;;;;5029878;28;20394;-77
2022/09/24 04:57:57;;;;;;;31.90;29.40;;;16.10;81.20;;;;;;5030943;28;20041;-77
2022/09/24 05:00:23;;;;;;;31.77;29.13;;;16.10;81.40;;;;;;5030399;28;20037;-77
2022/09/24 05:02:57;;;;;;;32.22;29.45;;;16.10;81.40;;;;;;5029804;28;20508;-77
2022/09/24 05:05:24;;;;;;;33.22;30.65;;;16.10;81.30;;;;;;5013693;28;20041;-77
2022/09/24 05:07:50;;;;;;;33.88;31.25;;;16.10;81.50;;;;;;5031047;28;20048;-77
2022/09/24 05:10:16;;;;;;;36.13;33.13;;;16.00;81.70;;;;;;5012304;28;20052;-77
2022/09/24 05:12:42;;;;;;;34.65;31.65;;;16.10;81.80;;;;;;5030967;28;20482;-77
2022/09/24 05:15:09;;;;;;;35.20;32.30;;;16.20;81.70;;;;;;5028928;28;20037;-77
2022/09/24 05:17:38;;;;;;;35.13;32.25;;;16.20;81.90;;;;;;5030829;28;20040;-77
2022/09/24 05:20:05;;;;;;;35.08;32.38;;;16.20;81.80;;;;;;5030968;28;20029;-77
2022/09/24 05:22:32;;;;;;;34.80;32.10;;;16.20;81.90;;;;;;5029650;28;20033;-77
2022/09/24 05:24:58;;;;;;;31.70;29.05;;;16.20;82.10;;;;;;5029783;28;20395;-77
2022/09/24 05:27:24;;;;;;;32.83;29.83;;;16.30;81.80;;;;;;5029457;28;20398;-77
2022/09/24 05:29:50;;;;;;;32.65;29.90;;;16.30;81.80;;;;;;5048817;28;20029;-77
2022/09/24 05:32:17;;;;;;;31.70;29.08;;;16.30;81.80;;;;;;5048211;28;20362;-77
2022/09/24 05:34:44;;;;;;;30.20;27.40;;;16.30;81.80;;;;;;5066693;28;20033;-77
2022/09/24 05:37:10;;;;;;;31.23;28.67;;;16.30;81.70;;;;;;5066756;28;20037;-77
2022/09/24 05:39:36;;;;;;;32.95;30.00;;;16.30;81.90;;;;;;5066698;28;20383;-77
2022/09/24 05:42:03;;;;;;;32.47;29.88;;;16.30;82.20;;;;;;5033152;28;20037;-77
2022/09/24 05:44:32;;;;;;;34.80;32.10;;;16.40;81.90;;;;;;5041690;28;20029;-77
2022/09/24 05:46:58;;;;;;;35.78;32.60;;;16.30;81.80;;;;;;5053765;28;20041;-77
2022/09/24 05:49:24;;;;;;;35.58;32.67;;;16.30;81.80;;;;;;5033380;28;20057;-77
2022/09/24 05:51:50;;;;;;;35.65;32.92;;;16.30;82.20;;;;;;5034511;28;20039;-77
2022/09/24 05:54:17;;;;;;;37.10;34.00;;;16.30;81.80;;;;;;5034492;28;20034;-77
2022/09/24 05:56:43;;;;;;;44.30;40.78;;;16.30;82.20;;;;;;5016595;28;20037;-77
2022/09/24 05:59:09;;;;;;;44.50;41.08;;;16.30;82.30;;;;;;5034417;28;20037;-77
2022/09/24 06:01:35;;;;;;;45.63;42.08;;;16.30;82.50;;;;;;5015928;28;20041;-77
2022/09/24 06:04:01;;;;;;;43.28;39.95;;;16.30;82.60;;;;;;5034255;28;20032;-77
2022/09/24 06:06:27;;;;;;;40.70;37.17;;;16.20;83.70;;;;;;5034421;28;20033;-77
2022/09/24 06:08:53;;;;;;;38.45;35.35;;;16.20;83.70;;;;;;5034383;28;20382;-77
2022/09/24 06:11:26;;;;;;;35.72;32.70;;;16.20;84.60;;;;;;5033938;28;20034;-77
2022/09/24 06:13:53;;;;;;;39.38;36.22;;;16.10;85.40;;;;;;5032555;28;20045;-76
2022/09/24 06:16:19;;;;;;;38.55;35.35;;;16.10;86.30;;;;;;5033544;28;20029;-77
2022/09/24 06:18:45;;;;;;;39.40;36.10;;;16.10;86.20;;;;;;5016486;28;20026;-77
2022/09/24 06:21:13;;;;;;;36.25;33.15;;;16.10;86.50;;;;;;5034218;28;20037;-77
2022/09/24 06:23:39;;;;;;;38.47;35.03;;;16.10;86.30;;;;;;5032766;28;20033;-77
2022/09/24 06:26:06;;;;;;;34.28;31.00;;;16.10;86.60;;;;;;5032478;28;20025;-77
2022/09/24 06:28:33;;;;;;;30.80;28.13;;;16.00;87.70;;;;;;5016270;28;20037;-77
2022/09/24 06:31:00;;;;;;;33.25;30.08;;;16.00;87.00;;;;;;5046717;28;20040;-77
2022/09/24 06:33:26;;;;;;;32.88;29.65;;;16.10;87.10;;;;;;5065715;28;20489;-77
2022/09/24 06:35:53;;;;;;;31.65;28.65;;;16.10;86.40;;;;;;5033962;28;20058;-77
2022/09/24 06:38:19;;;;;;;32.85;29.88;;;16.10;86.60;;;;;;5049208;28;20034;-77
2022/09/24 06:40:47;;;;;;;33.97;30.80;;;16.10;87.40;;;;;;5064048;28;20026;-77
2022/09/24 06:43:13;;;;;;;34.63;31.50;;;16.10;87.30;;;;;;5032588;28;20026;-77
2022/09/24 06:45:41;;;;;;;33.47;30.45;;;16.10;87.80;;;;;;5049620;28;20043;-77
2022/09/24 06:48:08;;;;;;;33.53;30.38;;;16.10;88.00;;;;;;5042081;28;20045;-77
2022/09/24 06:50:34;;;;;;;35.30;32.15;;;16.10;88.50;;;;;;5032099;28;20041;-77
2022/09/24 06:53:04;;;;;;;36.63;33.25;;;16.00;89.00;;;;;;5015731;28;20049;-77
2022/09/24 06:55:30;;;;;;;39.85;36.28;;;16.00;89.30;;;;;;5032026;28;20030;-77
2022/09/24 06:58:07;;;;;;;41.17;37.60;;;16.00;88.50;;;;;;5033293;28;20036;-77
2022/09/24 07:00:33;;;;;;;53.22;49.08;;;16.00;88.60;;;;;;5032830;28;20494;-77
2022/09/24 07:03:00;;;;;;;73.22;67.82;;;16.10;88.40;;;;;;5015485;28;20040;-77
2022/09/24 07:05:26;;;;;;;65.25;60.53;;;16.10;87.70;;;;;;5033167;28;20029;-77
2022/09/24 07:07:52;;;;;;;47.40;43.22;;;16.20;87.70;;;;;;5031966;28;20056;-77
2022/09/24 07:10:18;;;;;;;39.50;35.80;;;16.20;87.90;;;;;;5032630;28;20038;-77
2022/09/24 07:12:44;;;;;;;33.78;30.67;;;16.30;88.00;;;;;;5032949;28;20033;-77
2022/09/24 07:15:10;;;;;;;32.45;29.35;;;16.30;88.00;;;;;;5032509;28;20037;-77
2022/09/24 07:17:37;;;;;;;34.65;31.23;;;16.20;88.20;;;;;;5031177;28;20387;-77
2022/09/24 07:20:03;;;;;;;31.67;28.70;;;16.30;88.40;;;;;;5032892;28;20501;-77
2022/09/24 07:22:29;;;;;;;32.33;29.30;;;16.20;88.90;;;;;;5015331;28;20029;-77
2022/09/24 07:24:55;;;;;;;32.15;29.15;;;16.20;89.00;;;;;;5032499;28;20402;-77
2022/09/24 07:27:21;;;;;;;31.02;28.13;;;16.20;89.20;;;;;;5030320;28;20048;-77
2022/09/24 07:29:48;;;;;;;33.17;28.92;;;16.10;89.70;;;;;;5031404;28;20037;-77
2022/09/24 07:32:17;;;;;;;28.73;26.05;;;16.10;90.00;;;;;;5064026;28;20049;-77
2022/09/24 07:34:44;;;;;;;30.55;27.85;;;16.10;89.90;;;;;;5047898;28;20045;-77
2022/09/24 07:37:10;;;;;;;28.30;25.60;;;16.10;90.00;;;;;;5064384;28;20050;-77
2022/09/24 07:39:36;;;;;;;30.52;27.60;;;16.20;89.60;;;;;;5064199;28;20034;-77
2022/09/24 07:42:02;;;;;;;31.77;28.83;;;16.30;89.40;;;;;;5047890;28;20243;-77
2022/09/24 07:44:28;;;;;;;33.38;30.45;;;16.50;88.70;;;;;;5039468;28;20033;-77
2022/09/24 07:46:54;;;;;;;32.42;29.73;;;16.50;87.70;;;;;;5050943;28;20033;-77
2022/09/24 07:49:20;;;;;;;29.40;26.52;;;16.60;87.20;;;;;;5031083;28;20053;-77
2022/09/24 07:51:47;;;;;;;28.65;26.20;;;16.70;86.80;;;;;;5030487;28;20041;-77
2022/09/24 07:54:13;;;;;;;29.95;27.42;;;16.90;86.00;;;;;;5030626;28;20033;-77
2022/09/24 07:56:40;;;;;;;29.02;26.42;;;16.90;85.70;;;;;;5032316;28;20099;-77
2022/09/24 07:59:06;;;;;;;28.45;26.17;;;16.90;85.20;;;;;;5032083;28;20048;-77
2022/09/24 08:01:33;;;;;;;29.48;26.88;;;16.70;86.00;;;;;;5031693;28;20045;-77
2022/09/24 08:04:00;;;;;;;29.33;26.83;;;16.60;86.50;;;;;;5014389;28;20029;-77
2022/09/24 08:06:26;;;;;;;29.33;26.65;;;16.70;86.60;;;;;;5030850;28;20095;-77
2022/09/24 08:08:52;;;;;;;30.05;27.45;;;16.60;86.80;;;;;;5031769;28;20041;-77
2022/09/24 08:11:20;;;;;;;29.30;26.60;;;16.60;86.60;;;;;;5014322;28;20047;-77
2022/09/24 08:13:46;;;;;;;30.65;27.92;;;16.60;86.70;;;;;;4998289;28;20449;-77
2022/09/24 08:16:12;;;;;;;30.30;27.83;;;16.50;86.80;;;;;;5013725;28;20033;-77
2022/09/24 08:18:38;;;;;;;31.45;28.80;;;16.60;86.80;;;;;;5030621;28;20033;-77
2022/09/24 08:21:06;;;;;;;30.83;27.92;;;16.70;86.70;;;;;;5031772;28;20026;-77
2022/09/24 08:23:32;;;;;;;30.20;27.60;;;16.60;86.70;;;;;;5031226;28;20032;-77
2022/09/24 08:25:59;;;;;;;28.67;26.27;;;16.60;86.80;;;;;;5014219;28;20033;-77
2022/09/24 08:28:25;;;;;;;29.38;26.85;;;16.60;86.70;;;;;;5013645;28;20398;-77
2022/09/24 08:30:51;;;;;;;28.58;26.02;;;16.60;86.70;;;;;;5013419;28;20037;-77
2022/09/24 08:33:17;;;;;;;29.75;26.77;;;16.60;86.10;;;;;;5030354;28;20036;-77
2022/09/24 08:35:43;;;;;;;27.77;25.23;;;16.60;86.40;;;;;;5031385;28;20048;-77
2022/09/24 08:38:09;;;;;;;28.50;25.80;;;16.60;86.40;;;;;;5031149;28;20029;-77
2022/09/24 08:40:57;;;;;;;28.25;25.60;;;16.60;86.50;;;;;;5029641;28;20033;-77
2022/09/24 08:44:00;;;;;;;28.58;26.08;;;16.60;86.60;;;;;;4989633;28;20069;-77
2022/09/24 08:49:44;;;;;;;30.38;27.40;;;16.70;86.10;;;;;;4970621;28;20416;-77
2022/09/24 08:52:25;;;;;;;30.42;27.65;;;16.70;86.30;;;;;;4969718;28;20035;-77
2022/09/24 08:54:51;;;;;;;28.45;25.95;;;16.60;86.40;;;;;;4986122;28;20031;-77
2022/09/24 08:57:17;;;;;;;30.10;27.08;;;16.60;86.30;;;;;;4986465;28;20042;-77
2022/09/24 08:59:46;;;;;;;30.15;27.35;;;16.60;86.00;;;;;;4970013;28;20040;-77
2022/09/24 09:02:34;;;;;;;31.70;28.90;;;16.60;85.80;;;;;;4969309;28;20035;-77
2022/09/24 09:05:52;;;;;;;32.72;30.00;;;16.70;85.60;;;;;;4969531;28;20035;-77
2022/09/24 09:08:41;;;;;;;36.88;34.00;;;16.70;85.20;;;;;;4905246;29;20045;-77
2022/09/24 09:11:08;;;;;;;41.05;38.05;;;16.80;84.90;;;;;;4893834;29;20045;-77
2022/09/24 09:13:47;;;;;;;37.03;34.22;;;16.90;84.40;;;;;;4893490;29;20036;-77
2022/09/24 09:16:20;;;;;;;32.13;29.73;;;17.10;83.60;;;;;;4893301;29;20070;-77
2022/09/24 09:18:46;;;;;;;28.75;26.13;;;17.20;83.20;;;;;;4893631;29;20037;-78
2022/09/24 09:21:16;;;;;;;26.27;24.08;;;17.30;82.90;;;;;;4920690;29;20047;-77
2022/09/24 09:23:47;;;;;;;26.80;24.33;;;17.40;82.70;;;;;;4931525;29;20043;-77
2022/09/24 09:26:14;;;;;;;27.02;24.80;;;17.30;82.20;;;;;;4930327;29;20615;-77
2022/09/24 09:28:40;;;;;;;28.65;26.02;;;17.40;82.20;;;;;;4941563;28;20440;-77
2022/09/24 09:31:30;;;;;;;28.13;25.75;;;17.40;82.30;;;;;;4934461;28;20031;-78
2022/09/24 09:34:14;;;;;;;27.27;25.00;;;17.40;81.10;;;;;;4950454;29;20036;-78
2022/09/24 09:36:45;;;;;;;26.63;24.67;;;17.50;81.90;;;;;;4950594;29;20055;-77
2022/09/24 09:39:20;;;;;;;31.50;29.40;;;17.80;80.50;;;;;;4950585;29;20043;-77
2022/09/24 09:42:13;;;;;;;30.10;27.98;;;17.90;77.60;;;;;;4950327;28;20034;-77
2022/09/24 09:44:40;;;;;;;27.70;25.95;;;17.90;76.50;;;;;;5007777;28;20029;-78
2022/09/24 09:47:40;;;;;;;23.98;22.23;;;17.90;76.30;;;;;;5047572;28;20513;-77
2022/09/24 09:50:29;;;;;;;22.88;21.27;;;18.00;75.40;;;;;;5029339;28;20034;-77
2022/09/24 09:52:55;;;;;;;25.20;23.58;;;18.10;75.70;;;;;;5028406;28;20486;-77
2022/09/24 09:55:25;;;;;;;25.38;23.77;;;18.30;74.90;;;;;;5030858;28;20033;-78
2022/09/24 09:57:51;;;;;;;27.60;25.73;;;18.50;73.90;;;;;;5028922;28;20033;-78
2022/09/24 10:00:25;;;;;;;27.15;25.23;;;18.70;74.00;;;;;;5012326;28;20037;-78
2022/09/24 10:02:52;;;;;;;26.42;24.75;;;18.90;72.90;;;;;;5013142;28;20025;-77
2022/09/24 10:05:21;;;;;;;28.00;26.30;;;19.00;72.90;;;;;;5012628;28;20411;-77
2022/09/24 10:07:47;;;;;;;28.13;26.52;;;19.00;73.20;;;;;;5012896;28;20026;-77
2022/09/24 10:10:23;;;;;;;37.47;34.78;;;18.90;73.20;;;;;;5029267;28;20048;-77
2022/09/24 10:13:08;;;;;;;36.45;34.13;;;18.70;75.60;;;;;;5029340;28;20022;-77
2022/09/24 10:15:38;;;;;;;32.33;30.13;;;18.40;76.00;;;;;;5030938;28;20025;-77
2022/09/24 10:18:04;;;;;;;34.83;32.40;;;18.20;77.20;;;;;;5016678;28;20017;-77
2022/09/24 10:20:32;;;;;;;29.90;27.75;;;18.10;79.80;;;;;;5016540;28;20037;-77
2022/09/24 10:23:02;;;;;;;27.05;25.45;;;17.80;80.90;;;;;;5016576;28;20029;-77
2022/09/24 10:25:29;;;;;;;29.30;26.92;;;17.50;80.60;;;;;;5016587;28;20018;-76
2022/09/24 10:31:08;;;;;;;23.10;21.20;;;17.30;83.70;;;;;;4991712;28;20038;-77
2022/09/24 10:33:41;;;;;;;26.30;24.60;;;17.10;85.60;;;;;;4991744;28;20033;-77
2022/09/24 10:36:14;;;;;;;28.30;26.15;;;17.00;87.60;;;;;;4975592;28;20046;-77
2022/09/24 10:38:40;;;;;;;27.77;25.52;;;16.90;88.00;;;;;;4959932;28;20523;-77
2022/09/24 10:41:24;;;;;;;26.27;24.25;;;16.80;89.80;;;;;;4959560;28;20034;-77
2022/09/24 10:43:52;;;;;;;26.50;24.25;;;16.70;89.70;;;;;;4995008;28;20534;-76
2022/09/24 10:46:39;;;;;;;31.92;29.50;;;16.70;90.20;;;;;;4994819;28;20041;-76
2022/09/24 10:49:26;;;;;;;31.88;29.20;;;16.70;90.40;;;;;;4992599;28;20046;-76
2022/09/24 10:52:01;;;;;;;35.20;32.50;;;16.80;90.20;;;;;;4991576;28;20026;-76
2022/09/24 10:54:48;;;;;;;41.88;38.85;;;16.80;90.40;;;;;;4990741;28;20080;-76
2022/09/24 10:57:25;;;;;;;48.00;44.63;;;16.90;90.40;;;;;;4991853;28;20034;-76
2022/09/24 10:59:54;;;;;;;44.22;41.13;;;17.00;90.40;;;;;;4976385;28;20384;-76
2022/09/24 11:02:27;;;;;;;36.85;33.97;;;17.10;90.30;;;;;;4955971;28;20067;-76
2022/09/24 11:05:14;;;;;;;24.80;23.10;;;17.10;90.20;;;;;;4972084;28;20031;-76
2022/09/24 11:08:09;;;;;;;25.20;23.38;;;17.20;90.00;;;;;;4980596;28;20042;-76
2022/09/24 11:11:10;;;;;;;24.20;22.33;;;17.10;89.40;;;;;;4992588;28;20487;-76
2022/09/24 11:13:40;;;;;;;23.65;21.65;;;17.20;89.60;;;;;;5025157;28;20049;-76
2022/09/24 11:16:27;;;;;;;24.73;22.95;;;17.20;88.30;;;;;;5032939;28;20030;-76
2022/09/24 11:19:15;;;;;;;24.35;22.67;;;17.30;88.70;;;;;;5012170;28;20033;-76
2022/09/24 11:21:59;;;;;;;22.40;20.60;;;17.40;88.00;;;;;;5030093;28;20026;-76
2022/09/24 11:24:40;;;;;;;22.48;21.08;;;17.40;87.50;;;;;;5012217;28;20033;-76
2022/09/24 11:27:34;;;;;;;22.92;21.23;;;17.50;86.00;;;;;;5011320;28;20030;-76
2022/09/24 11:30:09;;;;;;;23.75;21.92;;;17.60;87.60;;;;;;5011663;28;20049;-77
2022/09/24 11:33:00;;;;;;;23.35;21.83;;;17.70;87.80;;;;;;5012178;28;20061;-76
2022/09/24 11:35:26;;;;;;;24.50;22.55;;;17.80;86.60;;;;;;5010669;28;20047;-76
2022/09/24 11:38:26;;;;;;;34.50;32.47;;;17.90;86.20;;;;;;5010464;28;20048;-76
2022/09/24 11:41:01;;;;;;;27.92;25.77;;;18.00;84.70;;;;;;4996403;28;20038;-76
2022/09/24 11:43:48;;;;;;;27.08;25.27;;;18.10;83.40;;;;;;5010239;28;20045;-77
2022/09/24 11:46:46;;;;;;;22.20;20.83;;;18.30;84.40;;;;;;4973559;28;20038;-76
2022/09/24 11:50:00;;;;;;;21.88;20.27;;;18.50;83.00;;;;;;4974258;28;20058;-77
2022/09/24 11:52:38;;;;;;;23.85;22.13;;;18.70;82.70;;;;;;4970620;28;20480;-77
2022/09/24 11:55:16;;;;;;;30.15;28.15;;;18.80;80.60;;;;;;4939546;28;20071;-77
2022/09/24 11:57:48;;;;;;;26.40;24.42;;;18.80;81.10;;;;;;4938193;28;20045;-77
2022/09/24 12:00:19;;;;;;;30.50;28.63;;;18.70;79.10;;;;;;4954585;28;20145;-77
2022/09/24 12:02:49;;;;;;;29.50;27.60;;;18.60;78.90;;;;;;4955421;28;20054;-77
2022/09/24 12:05:29;;;;;;;32.00;29.92;;;18.70;78.80;;;;;;4971047;28;20043;-77
2022/09/24 12:08:04;;;;;;;35.22;33.00;;;18.60;80.20;;;;;;4971053;28;20056;-77
2022/09/24 12:10:48;;;;;;;32.67;30.77;;;18.60;78.20;;;;;;4939350;28;20531;-76
2022/09/24 12:13:30;;;;;;;31.60;29.88;;;18.60;76.80;;;;;;4924720;29;20047;-76
2022/09/24 12:16:10;;;;;;;26.45;24.67;;;18.80;77.70;;;;;;4936656;29;20027;-76
2022/09/24 12:18:53;;;;;;;25.80;24.38;;;18.80;71.50;;;;;;4950606;28;20520;-77
2022/09/24 12:21:22;;;;;;;26.17;24.45;;;18.70;70.70;;;;;;4985420;28;20054;-76
2022/09/24 12:23:50;;;;;;;27.95;26.35;;;18.60;69.80;;;;;;4986337;28;20038;-76
2022/09/24 12:26:16;;;;;;;25.48;24.17;;;18.60;70.90;;;;;;4986674;28;20492;-77
2022/09/24 12:35:00;;;;;;;25.40;23.80;;;18.80;69.60;;;;;;5018164;28;20113;-76
2022/09/24 12:37:30;;;;;;;24.17;22.88;;;18.90;68.10;;;;;;5010380;28;20025;-76
2022/09/24 12:39:59;;;;;;;24.65;23.30;;;19.00;67.70;;;;;;5010251;28;20030;-76
2022/09/24 12:42:29;;;;;;;26.60;25.05;;;19.20;67.00;;;;;;5028539;28;20398;-76
2022/09/24 12:44:57;;;;;;;38.75;36.75;;;19.20;66.60;;;;;;5042289;28;20037;-76
2022/09/24 12:47:32;;;;;;;29.55;28.05;;;19.40;64.70;;;;;;5047019;28;20025;-77
2022/09/24 12:50:03;;;;;;;43.97;41.08;;;19.50;66.70;;;;;;5014306;28;20044;-77
2022/09/24 12:52:40;;;;;;;40.83;38.70;;;19.60;66.40;;;;;;5013682;28;20037;-76
2022/09/24 12:55:22;;;;;;;41.58;39.20;;;19.70;65.40;;;;;;5031204;28;20029;-76
2022/09/24 12:58:23;;;;;;;40.40;38.00;;;19.60;64.40;;;;;;5013831;28;20032;-76
2022/09/24 13:00:51;;;;;;;26.52;24.92;;;19.60;64.50;;;;;;5028447;28;20030;-76
2022/09/24 13:03:39;;;;;;;28.60;27.00;;;19.60;64.90;;;;;;5013840;28;20021;-77
2022/09/24 13:06:31;;;;;;;31.35;29.48;;;19.50;65.90;;;;;;5031204;28;20029;-76
2022/09/24 13:08:57;;;;;;;38.45;36.40;;;19.50;65.10;;;;;;5029868;28;20053;-76